createdAt,value
2018-08-14T00:00:09.732Z,0
2018-08-14T00:01:25.789Z,0
2018-08-14T00:02:42.646Z,0
2018-08-14T00:03:58.562Z,0
2018-08-14T00:05:14.627Z,0
2018-08-14T00:06:30.631Z,0
2018-08-14T00:07:46.761Z,0
2018-08-14T00:09:02.728Z,0
2018-08-14T00:10:18.653Z,0
2018-08-14T00:11:34.693Z,0
2018-08-14T00:12:50.778Z,0
2018-08-14T00:14:06.812Z,0
2018-08-14T00:15:22.762Z,0
2018-08-14T00:16:38.701Z,0
2018-08-14T00:17:54.928Z,0
2018-08-14T00:19:10.933Z,0
2018-08-14T00:20:27.012Z,0
2018-08-14T00:21:43.125Z,0
2018-08-14T00:22:59.105Z,0
2018-08-14T00:24:15.158Z,0
2018-08-14T00:25:31.161Z,0
2018-08-14T00:26:47.201Z,0
2018-08-14T00:28:03.158Z,0
2018-08-14T00:29:19.100Z,0
2018-08-14T00:30:35.223Z,0
2018-08-14T00:31:51.134Z,0
2018-08-14T00:33:07.159Z,0
2018-08-14T00:34:23.127Z,0
2018-08-14T00:35:39.186Z,0
2018-08-14T00:36:55.911Z,0
2018-08-14T00:38:11.211Z,0
2018-08-14T00:39:27.202Z,0
2018-08-14T00:40:43.159Z,0
2018-08-14T00:41:59.162Z,0
2018-08-14T00:43:15.353Z,0
2018-08-14T00:44:31.426Z,0
2018-08-14T00:45:47.416Z,0
2018-08-14T00:47:03.343Z,0
2018-08-14T00:48:19.382Z,0
2018-08-14T00:49:35.335Z,0
2018-08-14T00:50:51.304Z,0
2018-08-14T00:52:07.277Z,0
2018-08-14T00:53:23.266Z,0
2018-08-14T00:54:40.238Z,0
2018-08-14T00:55:56.422Z,0
2018-08-14T00:57:12.398Z,0
2018-08-14T00:58:28.534Z,0
2018-08-14T00:59:44.569Z,0
2018-08-14T01:01:00.829Z,0
2018-08-14T01:02:16.830Z,0
2018-08-14T01:03:32.791Z,0
2018-08-14T01:04:48.849Z,0
2018-08-14T01:06:04.915Z,0
2018-08-14T01:07:21.048Z,0
2018-08-14T01:08:37.110Z,0
2018-08-14T01:09:53.183Z,0
2018-08-14T01:11:09.179Z,0
2018-08-14T01:12:25.299Z,0
2018-08-14T01:13:41.295Z,0
2018-08-14T01:14:57.404Z,0
2018-08-14T01:16:13.493Z,0
2018-08-14T01:17:29.707Z,0
2018-08-14T01:18:45.649Z,0
2018-08-14T01:20:01.777Z,0
2018-08-14T01:21:17.760Z,0
2018-08-14T01:22:33.780Z,0
2018-08-14T01:23:49.880Z,0
2018-08-14T01:25:05.821Z,0
2018-08-14T01:26:21.831Z,0
2018-08-14T01:27:37.964Z,0
2018-08-14T01:28:53.993Z,0
2018-08-14T01:30:09.975Z,0
2018-08-14T01:31:25.960Z,0
2018-08-14T01:32:42.010Z,0
2018-08-14T01:33:57.973Z,0
2018-08-14T01:35:14.293Z,0
2018-08-14T01:36:30.257Z,0
2018-08-14T01:37:46.402Z,0
2018-08-14T01:39:02.367Z,0
2018-08-14T01:40:18.298Z,0
2018-08-14T01:41:34.379Z,0
2018-08-14T01:42:50.322Z,0
2018-08-14T01:44:07.395Z,0
2018-08-14T01:45:23.347Z,0
2018-08-14T01:46:39.432Z,0
2018-08-14T01:47:55.458Z,0
2018-08-14T01:49:12.098Z,0
2018-08-14T01:50:28.070Z,0
2018-08-14T01:51:44.016Z,0
2018-08-14T01:53:00.016Z,0
2018-08-14T01:54:16.040Z,0
2018-08-14T01:55:32.170Z,0
2018-08-14T01:56:48.999Z,0
2018-08-14T01:58:04.912Z,0
2018-08-14T01:59:20.934Z,0
2018-08-14T02:00:37.011Z,0
2018-08-14T02:01:53.084Z,0
2018-08-14T02:03:09.048Z,0
2018-08-14T02:04:25.018Z,0
2018-08-14T02:05:41.123Z,0
2018-08-14T02:06:57.218Z,0
2018-08-14T02:08:13.206Z,0
2018-08-14T02:09:29.194Z,0
2018-08-14T02:10:45.178Z,0
2018-08-14T02:12:01.125Z,0
2018-08-14T02:13:17.062Z,0
2018-08-14T02:14:33.019Z,0
2018-08-14T02:15:49.210Z,0
2018-08-14T02:17:05.337Z,0
2018-08-14T02:18:21.418Z,0
2018-08-14T02:19:37.359Z,0
2018-08-14T02:20:53.365Z,0
2018-08-14T02:22:09.324Z,0
2018-08-14T02:23:25.357Z,0
2018-08-14T02:24:41.509Z,0
2018-08-14T02:25:57.630Z,0
2018-08-14T02:27:13.594Z,0
2018-08-14T02:28:30.457Z,0
2018-08-14T02:29:46.679Z,0
2018-08-14T02:31:02.707Z,0
2018-08-14T02:32:18.709Z,0
2018-08-14T02:33:34.880Z,0
2018-08-14T02:34:51.388Z,0
2018-08-14T02:36:07.341Z,0
2018-08-14T02:37:23.360Z,0
2018-08-14T02:38:39.545Z,0
2018-08-14T02:39:55.525Z,0
2018-08-14T02:41:11.628Z,0
2018-08-14T02:42:27.577Z,0
2018-08-14T02:43:43.717Z,0
2018-08-14T02:44:59.755Z,0
2018-08-14T02:46:15.938Z,0
2018-08-14T02:47:31.886Z,0
2018-08-14T02:48:48.027Z,0
2018-08-14T02:50:04.029Z,0
2018-08-14T02:51:20.097Z,0
2018-08-14T02:52:36.099Z,0
2018-08-14T02:53:52.197Z,0
2018-08-14T02:55:09.305Z,0
2018-08-14T02:56:25.318Z,0
2018-08-14T02:57:41.301Z,0
2018-08-14T02:58:57.431Z,0
2018-08-14T03:00:13.410Z,0
2018-08-14T03:01:29.436Z,0
2018-08-14T03:02:45.339Z,0
2018-08-14T03:04:01.367Z,0
2018-08-14T03:05:17.335Z,0
2018-08-14T03:06:33.323Z,0
2018-08-14T03:07:49.258Z,0
2018-08-14T03:09:05.233Z,0
2018-08-14T03:10:21.333Z,0
2018-08-14T03:11:37.376Z,0
2018-08-14T03:12:53.642Z,0
2018-08-14T03:14:09.722Z,0
2018-08-14T03:15:25.686Z,0
2018-08-14T03:16:41.617Z,0
2018-08-14T03:17:57.652Z,0
2018-08-14T03:19:13.728Z,0
2018-08-14T03:20:29.692Z,0
2018-08-14T03:21:45.641Z,0
2018-08-14T03:23:01.767Z,0
2018-08-14T03:24:17.894Z,0
2018-08-14T03:25:33.824Z,0
2018-08-14T03:28:30.519Z,0
2018-08-14T03:29:46.595Z,0
2018-08-14T03:31:02.680Z,0
2018-08-14T03:32:18.631Z,0
2018-08-14T03:33:34.758Z,0
2018-08-14T03:34:50.737Z,0
2018-08-14T03:36:06.738Z,0
2018-08-14T03:37:22.807Z,0
2018-08-14T03:38:38.884Z,0
2018-08-14T03:39:54.868Z,0
2018-08-14T03:41:10.840Z,0
2018-08-14T03:42:26.984Z,0
2018-08-14T03:43:42.994Z,0
2018-08-14T03:44:59.034Z,0
2018-08-14T03:46:14.999Z,0
2018-08-14T03:47:30.960Z,0
2018-08-14T03:48:47.031Z,0
2018-08-14T03:50:03.092Z,0
2018-08-14T03:51:19.105Z,0
2018-08-14T03:52:36.649Z,0
2018-08-14T03:53:52.574Z,0
2018-08-14T03:55:08.535Z,0
2018-08-14T03:56:24.551Z,1
2018-08-14T03:57:41.317Z,1
2018-08-14T03:58:57.613Z,1
2018-08-14T04:00:13.535Z,0
2018-08-14T04:01:29.527Z,1
2018-08-14T04:02:45.602Z,1
2018-08-14T04:04:01.514Z,1
2018-08-14T04:05:17.520Z,1
2018-08-14T04:06:34.431Z,2
2018-08-14T04:07:50.408Z,3
2018-08-14T04:09:06.362Z,3
2018-08-14T04:10:22.283Z,3
2018-08-14T04:11:38.251Z,4
2018-08-14T04:12:54.416Z,5
2018-08-14T04:14:10.477Z,6
2018-08-14T04:15:26.976Z,7
2018-08-14T04:16:43.088Z,7
2018-08-14T04:17:59.040Z,7
2018-08-14T04:19:14.977Z,9
2018-08-14T04:20:30.965Z,10
2018-08-14T04:21:46.947Z,14
2018-08-14T04:23:02.902Z,16
2018-08-14T04:24:18.840Z,20
2018-08-14T04:25:34.997Z,20
2018-08-14T04:26:51.159Z,25
2018-08-14T04:28:07.085Z,29
2018-08-14T04:29:22.992Z,33
2018-08-14T04:30:39.005Z,35
2018-08-14T04:31:55.037Z,38
2018-08-14T04:33:11.016Z,41
2018-08-14T04:34:27.050Z,43
2018-08-14T04:35:43.012Z,47
2018-08-14T04:36:59.086Z,53
2018-08-14T04:38:15.152Z,58
2018-08-14T04:39:31.209Z,62
2018-08-14T04:40:47.199Z,61
2018-08-14T04:42:03.236Z,61
2018-08-14T04:43:19.215Z,64
2018-08-14T04:44:35.289Z,67
2018-08-14T04:45:51.519Z,69
2018-08-14T04:47:07.406Z,72
2018-08-14T04:48:23.380Z,73
2018-08-14T04:49:39.319Z,77
2018-08-14T04:50:56.224Z,83
2018-08-14T04:52:12.115Z,86
2018-08-14T04:53:28.112Z,93
2018-08-14T04:54:44.065Z,100
2018-08-14T04:56:00.044Z,108
2018-08-14T04:57:15.923Z,114
2018-08-14T04:58:32.791Z,119
2018-08-14T04:59:48.704Z,132
2018-08-14T05:01:04.676Z,142
2018-08-14T05:02:21.139Z,144
2018-08-14T05:03:37.105Z,152
2018-08-14T05:04:53.022Z,161
2018-08-14T05:06:08.986Z,161
2018-08-14T05:07:24.914Z,165
2018-08-14T05:08:40.989Z,168
2018-08-14T05:09:56.909Z,179
2018-08-14T05:11:12.868Z,189
2018-08-14T05:12:28.831Z,199
2018-08-14T05:13:44.794Z,196
2018-08-14T05:15:00.745Z,186
2018-08-14T05:16:16.751Z,169
2018-08-14T05:17:32.734Z,169
2018-08-14T05:18:48.663Z,173
2018-08-14T05:20:04.584Z,183
2018-08-14T05:21:20.538Z,199
2018-08-14T05:22:36.630Z,209
2018-08-14T05:23:52.584Z,232
2018-08-14T05:25:08.571Z,256
2018-08-14T05:26:24.576Z,248
2018-08-14T05:27:40.612Z,248
2018-08-14T05:28:56.641Z,247
2018-08-14T05:30:12.531Z,243
2018-08-14T05:31:28.423Z,236
2018-08-14T05:32:44.394Z,234
2018-08-14T05:34:01.187Z,234
2018-08-14T05:35:17.264Z,259
2018-08-14T05:36:33.309Z,282
2018-08-14T05:37:49.549Z,321
2018-08-14T05:39:05.561Z,347
2018-08-14T05:40:22.452Z,306
2018-08-14T05:41:38.372Z,270
2018-08-14T05:42:54.305Z,307
2018-08-14T05:44:10.271Z,315
2018-08-14T05:45:26.283Z,309
2018-08-14T05:46:42.273Z,307
2018-08-14T05:47:58.468Z,292
2018-08-14T05:49:14.482Z,296
2018-08-14T05:50:30.435Z,305
2018-08-14T05:51:46.443Z,325
2018-08-14T05:53:02.499Z,356
2018-08-14T05:54:18.507Z,345
2018-08-14T05:55:34.597Z,326
2018-08-14T05:56:50.558Z,318
2018-08-14T05:58:06.522Z,324
2018-08-14T05:59:22.499Z,371
2018-08-14T06:00:38.409Z,391
2018-08-14T06:01:54.358Z,384
2018-08-14T06:03:10.439Z,402
2018-08-14T06:04:26.438Z,388
2018-08-14T06:05:42.408Z,391
2018-08-14T06:06:58.392Z,426
2018-08-14T06:08:14.325Z,470
2018-08-14T06:09:30.322Z,488
2018-08-14T06:10:46.296Z,502
2018-08-14T06:12:02.291Z,521
2018-08-14T06:13:18.254Z,530
2018-08-14T06:14:34.250Z,533
2018-08-14T06:15:52.403Z,531
2018-08-14T06:17:08.364Z,525
2018-08-14T06:18:24.352Z,492
2018-08-14T06:19:40.326Z,474
2018-08-14T06:20:56.277Z,462
2018-08-14T06:22:12.201Z,461
2018-08-14T06:23:28.147Z,471
2018-08-14T06:24:44.072Z,487
2018-08-14T06:26:00.015Z,479
2018-08-14T06:27:16.132Z,440
2018-08-14T06:28:32.143Z,404
2018-08-14T06:29:48.085Z,366
2018-08-14T06:31:04.012Z,401
2018-08-14T06:32:20.003Z,392
2018-08-14T06:33:35.894Z,377
2018-08-14T06:34:51.869Z,394
2018-08-14T06:36:07.777Z,396
2018-08-14T06:37:23.823Z,418
2018-08-14T06:38:39.754Z,466
2018-08-14T06:39:55.755Z,527
2018-08-14T06:41:11.784Z,554
2018-08-14T06:42:27.649Z,552
2018-08-14T06:43:43.605Z,584
2018-08-14T06:44:59.560Z,619
2018-08-14T06:46:15.611Z,651
2018-08-14T06:47:31.701Z,691
2018-08-14T06:48:47.675Z,712
2018-08-14T06:50:03.570Z,728
2018-08-14T06:51:19.557Z,732
2018-08-14T06:52:35.525Z,737
2018-08-14T06:53:51.527Z,740
2018-08-14T06:55:07.429Z,733
2018-08-14T06:56:23.487Z,726
2018-08-14T06:57:39.502Z,729
2018-08-14T06:58:55.432Z,730
2018-08-14T07:00:11.454Z,749
2018-08-14T07:01:27.469Z,766
2018-08-14T07:02:43.417Z,788
2018-08-14T07:03:59.354Z,805
2018-08-14T07:05:15.290Z,791
2018-08-14T07:06:31.287Z,756
2018-08-14T07:07:47.296Z,749
2018-08-14T07:09:03.202Z,762
2018-08-14T07:10:19.188Z,821
2018-08-14T07:11:35.150Z,868
2018-08-14T07:12:51.093Z,927
2018-08-14T07:14:07.032Z,986
2018-08-14T07:15:23.063Z,1091
2018-08-14T07:16:39.102Z,1218
2018-08-14T07:19:35.471Z,1389
2018-08-14T07:20:51.577Z,1296
2018-08-14T07:22:07.513Z,1407
2018-08-14T07:23:23.492Z,1716
2018-08-14T07:24:39.438Z,1553
2018-08-14T07:25:55.400Z,1861
2018-08-14T07:27:11.394Z,1104
2018-08-14T07:28:27.409Z,790
2018-08-14T07:29:43.407Z,765
2018-08-14T07:30:59.454Z,770
2018-08-14T07:32:15.413Z,803
2018-08-14T07:33:31.361Z,785
2018-08-14T07:34:47.318Z,771
2018-08-14T07:36:03.539Z,776
2018-08-14T07:37:19.488Z,831
2018-08-14T07:38:35.538Z,969
2018-08-14T07:39:51.544Z,1163
2018-08-14T07:41:07.529Z,1240
2018-08-14T07:42:23.504Z,1573
2018-08-14T07:43:39.440Z,1899
2018-08-14T07:44:55.359Z,1820
2018-08-14T07:46:11.329Z,2511
2018-08-14T07:47:27.424Z,2010
2018-08-14T07:48:43.387Z,1656
2018-08-14T07:49:59.410Z,1536
2018-08-14T07:51:15.349Z,1460
2018-08-14T07:52:31.334Z,1396
2018-08-14T07:53:47.332Z,1410
2018-08-14T07:55:03.331Z,1542
2018-08-14T07:56:19.380Z,1598
2018-08-14T07:57:35.429Z,1583
2018-08-14T07:58:51.427Z,1653
2018-08-14T08:00:07.470Z,1748
2018-08-14T08:01:23.384Z,1698
2018-08-14T08:02:39.354Z,1718
2018-08-14T08:03:55.383Z,1934
2018-08-14T08:05:11.262Z,1860
2018-08-14T08:06:27.233Z,1829
2018-08-14T08:07:43.201Z,1752
2018-08-14T08:08:59.178Z,1680
2018-08-14T08:10:15.119Z,1557
2018-08-14T08:11:31.154Z,1718
2018-08-14T08:12:47.127Z,2135
2018-08-14T08:14:03.246Z,2183
2018-08-14T08:15:19.151Z,1986
2018-08-14T08:16:35.068Z,1795
2018-08-14T08:17:51.059Z,1856
2018-08-14T08:19:06.997Z,1796
2018-08-14T08:20:22.939Z,2356
2018-08-14T08:21:38.883Z,2064
2018-08-14T08:22:54.856Z,2517
2018-08-14T08:24:11.753Z,2523
2018-08-14T08:25:27.674Z,2028
2018-08-14T08:26:43.578Z,2501
2018-08-14T08:27:59.514Z,2602
2018-08-14T08:29:15.434Z,2506
2018-08-14T08:30:31.463Z,2492
2018-08-14T08:31:47.599Z,2078
2018-08-14T08:33:03.557Z,2115
2018-08-14T08:34:19.534Z,2435
2018-08-14T08:35:35.384Z,2495
2018-08-14T08:36:51.345Z,2496
2018-08-14T08:38:07.340Z,2510
2018-08-14T08:39:23.488Z,2489
2018-08-14T08:40:39.466Z,2492
2018-08-14T08:41:55.529Z,2480
2018-08-14T08:43:11.560Z,2403
2018-08-14T08:44:27.508Z,2439
2018-08-14T08:45:43.391Z,2419
2018-08-14T08:46:59.416Z,1648
2018-08-14T08:48:15.372Z,1698
2018-08-14T08:49:31.277Z,1704
2018-08-14T08:50:47.948Z,1831
2018-08-14T08:52:03.842Z,2213
2018-08-14T08:53:19.780Z,2453
2018-08-14T08:54:35.736Z,2163
2018-08-14T08:55:51.641Z,1693
2018-08-14T08:57:07.620Z,2387
2018-08-14T08:58:23.822Z,2246
2018-08-14T08:59:39.943Z,2122
2018-08-14T09:00:55.863Z,2093
2018-08-14T09:02:11.813Z,2099
2018-08-14T09:03:27.787Z,2094
2018-08-14T09:04:43.652Z,2062
2018-08-14T09:05:59.590Z,2081
2018-08-14T09:07:15.553Z,2012
2018-08-14T09:08:31.454Z,2099
2018-08-14T09:09:47.373Z,2107
2018-08-14T09:11:03.568Z,2076
2018-08-14T09:12:19.606Z,2067
2018-08-14T09:13:35.530Z,2063
2018-08-14T09:14:51.476Z,2086
2018-08-14T09:16:07.453Z,2058
2018-08-14T09:17:23.435Z,2033
2018-08-14T09:18:39.439Z,2039
2018-08-14T09:19:55.358Z,1988
2018-08-14T09:21:11.629Z,2035
2018-08-14T09:22:27.551Z,2044
2018-08-14T09:23:43.505Z,2027
2018-08-14T09:25:00.387Z,2037
2018-08-14T09:26:16.433Z,2061
2018-08-14T09:27:32.395Z,2056
2018-08-14T09:28:48.329Z,2052
2018-08-14T09:30:04.246Z,2094
2018-08-14T09:31:20.174Z,2127
2018-08-14T09:32:36.097Z,2210
2018-08-14T09:33:52.029Z,2179
2018-08-14T09:35:07.941Z,2192
2018-08-14T09:36:23.969Z,2197
2018-08-14T09:37:40.047Z,2164
2018-08-14T09:38:56.045Z,2181
2018-08-14T09:40:12.009Z,2183
2018-08-14T09:41:27.895Z,2184
2018-08-14T09:42:43.858Z,2228
2018-08-14T09:43:59.739Z,2267
2018-08-14T09:45:15.756Z,2249
2018-08-14T09:46:31.856Z,2364
2018-08-14T09:47:47.807Z,2593
2018-08-14T09:49:03.726Z,2740
2018-08-14T09:50:19.788Z,2808
2018-08-14T09:51:35.764Z,2866
2018-08-14T09:52:51.708Z,2837
2018-08-14T09:54:07.654Z,2888
2018-08-14T09:55:24.434Z,2822
2018-08-14T09:56:40.391Z,2637
2018-08-14T09:57:56.360Z,2523
2018-08-14T09:59:12.456Z,2567
2018-08-14T10:00:28.465Z,2618
2018-08-14T10:01:44.475Z,2610
2018-08-14T10:03:00.390Z,2599
2018-08-14T10:04:16.450Z,2714
2018-08-14T10:05:32.480Z,2656
2018-08-14T10:06:48.445Z,2600
2018-08-14T10:08:04.403Z,2501
2018-08-14T10:09:20.338Z,2494
2018-08-14T10:10:36.261Z,2478
2018-08-14T10:11:52.220Z,2457
2018-08-14T10:13:08.157Z,2420
2018-08-14T10:14:24.146Z,2336
2018-08-14T10:15:40.064Z,2320
2018-08-14T10:16:56.012Z,2262
2018-08-14T10:18:12.076Z,2287
2018-08-14T10:19:28.157Z,2270
2018-08-14T10:20:44.169Z,2234
2018-08-14T10:22:00.045Z,2229
2018-08-14T10:23:15.968Z,2229
2018-08-14T10:24:31.868Z,2206
2018-08-14T10:25:47.900Z,2182
2018-08-14T10:27:03.841Z,2154
2018-08-14T10:28:19.788Z,2119
2018-08-14T10:29:35.690Z,2041
2018-08-14T10:30:51.650Z,2011
2018-08-14T10:32:07.542Z,2005
2018-08-14T10:33:23.514Z,1973
2018-08-14T10:34:39.408Z,1962
2018-08-14T10:35:55.468Z,1933
2018-08-14T10:37:11.481Z,1927
2018-08-14T10:38:27.492Z,1928
2018-08-14T10:39:43.567Z,1924
2018-08-14T10:40:59.367Z,1900
2018-08-14T10:42:15.234Z,1939
2018-08-14T10:43:31.167Z,1905
2018-08-14T10:44:47.041Z,1897
2018-08-14T10:46:03.049Z,1922
2018-08-14T10:47:18.919Z,1920
2018-08-14T10:48:34.912Z,1930
2018-08-14T10:49:50.856Z,1947
2018-08-14T10:51:06.768Z,1966
2018-08-14T10:52:22.681Z,1977
2018-08-14T10:53:38.638Z,2005
2018-08-14T10:54:54.658Z,1989
2018-08-14T10:56:10.571Z,2011
2018-08-14T10:57:26.641Z,1990
2018-08-14T10:58:42.773Z,1979
2018-08-14T10:59:58.540Z,2004
2018-08-14T11:01:14.488Z,2025
2018-08-14T11:02:30.402Z,2044
2018-08-14T11:03:46.408Z,2138
2018-08-14T11:05:02.424Z,2178
2018-08-14T11:06:18.343Z,2172
2018-08-14T11:07:34.333Z,2251
2018-08-14T11:08:50.270Z,2304
2018-08-14T11:10:06.394Z,2336
2018-08-14T11:11:22.368Z,2090
2018-08-14T11:12:38.246Z,2374
2018-08-14T11:13:54.348Z,1988
2018-08-14T11:15:10.273Z,2410
2018-08-14T11:16:26.311Z,2018
2018-08-14T11:17:42.153Z,1686
2018-08-14T11:18:58.103Z,1611
2018-08-14T11:20:14.124Z,1605
2018-08-14T11:21:30.111Z,1618
2018-08-14T11:22:46.232Z,1576
2018-08-14T11:24:02.186Z,1600
2018-08-14T11:25:18.141Z,1647
2018-08-14T11:26:34.063Z,1721
2018-08-14T11:27:50.036Z,1770
2018-08-14T11:29:05.926Z,1753
2018-08-14T11:30:21.815Z,1716
2018-08-14T11:31:37.758Z,1632
2018-08-14T11:32:53.679Z,1562
2018-08-14T11:34:09.606Z,1542
2018-08-14T11:35:25.550Z,1561
2018-08-14T11:36:41.514Z,1625
2018-08-14T11:37:57.441Z,1512
2018-08-14T11:40:55.339Z,1230
2018-08-14T11:42:11.320Z,1186
2018-08-14T11:43:27.399Z,1139
2018-08-14T11:44:43.426Z,1076
2018-08-14T11:45:59.418Z,1040
2018-08-14T11:47:15.318Z,1039
2018-08-14T11:48:32.287Z,1016
2018-08-14T11:49:48.247Z,988
2018-08-14T11:51:04.196Z,960
2018-08-14T11:52:20.132Z,919
2018-08-14T11:53:36.369Z,848
2018-08-14T11:54:52.410Z,775
2018-08-14T11:56:08.449Z,729
2018-08-14T11:57:24.462Z,714
2018-08-14T11:58:40.343Z,703
2018-08-14T11:59:56.261Z,682
2018-08-14T12:01:12.217Z,670
2018-08-14T12:02:28.202Z,668
2018-08-14T12:03:44.145Z,677
2018-08-14T12:05:00.298Z,686
2018-08-14T12:06:16.367Z,694
2018-08-14T12:07:32.321Z,718
2018-08-14T12:08:48.236Z,698
2018-08-14T12:10:04.172Z,709
2018-08-14T12:11:20.177Z,710
2018-08-14T12:12:36.070Z,714
2018-08-14T12:13:52.124Z,730
2018-08-14T12:15:08.047Z,747
2018-08-14T12:16:24.071Z,781
2018-08-14T12:17:40.386Z,828
2018-08-14T12:18:56.471Z,882
2018-08-14T12:20:12.398Z,934
2018-08-14T12:23:09.050Z,1034
2018-08-14T12:24:25.052Z,1076
2018-08-14T12:25:41.406Z,1136
2018-08-14T12:26:57.349Z,1198
2018-08-14T12:28:13.329Z,1280
2018-08-14T12:29:29.260Z,1398
2018-08-14T12:30:45.182Z,1520
2018-08-14T12:32:01.173Z,1637
2018-08-14T12:33:17.291Z,2000
2018-08-14T12:34:33.288Z,2243
2018-08-14T12:35:49.239Z,2316
2018-08-14T12:37:05.161Z,2202
2018-08-14T12:38:21.089Z,2482
2018-08-14T12:39:37.116Z,2782
2018-08-14T12:40:53.039Z,2506
2018-08-14T12:42:08.957Z,2914
2018-08-14T12:43:24.948Z,3559
2018-08-14T12:44:40.921Z,3498
2018-08-14T12:45:56.839Z,3075
2018-08-14T12:47:12.891Z,3202
2018-08-14T12:48:28.788Z,3413
2018-08-14T12:49:44.707Z,2518
2018-08-14T12:51:00.635Z,3120
2018-08-14T12:52:17.537Z,3211
2018-08-14T12:53:33.462Z,2590
2018-08-14T12:54:49.454Z,2658
2018-08-14T12:56:05.406Z,2457
2018-08-14T12:57:21.309Z,2326
2018-08-14T12:58:37.209Z,2256
2018-08-14T12:59:53.268Z,2058
2018-08-14T13:01:09.336Z,2322
2018-08-14T13:02:25.267Z,2304
2018-08-14T13:03:41.284Z,2509
2018-08-14T13:04:57.201Z,2445
2018-08-14T13:06:13.203Z,2781
2018-08-14T13:07:29.151Z,3111
2018-08-14T13:08:45.194Z,3180
2018-08-14T13:10:01.052Z,3228
2018-08-14T13:11:16.968Z,2889
2018-08-14T13:12:33.034Z,1931
2018-08-14T13:13:48.964Z,1842
2018-08-14T13:15:04.941Z,2050
2018-08-14T13:16:20.791Z,2399
2018-08-14T13:17:36.711Z,2752
2018-08-14T13:18:52.591Z,2732
2018-08-14T13:20:08.496Z,2708
2018-08-14T13:21:24.447Z,2657
2018-08-14T13:22:40.465Z,2749
2018-08-14T13:23:56.419Z,2703
2018-08-14T13:25:12.366Z,2677
2018-08-14T13:26:28.348Z,2648
2018-08-14T13:27:44.280Z,2694
2018-08-14T13:29:01.190Z,2644
2018-08-14T13:30:17.112Z,2606
2018-08-14T13:31:33.044Z,2614
2018-08-14T13:32:49.008Z,2631
2018-08-14T13:34:04.869Z,2629
2018-08-14T13:35:20.794Z,2633
2018-08-14T13:36:36.832Z,2617
2018-08-14T13:37:52.753Z,2621
2018-08-14T13:39:08.891Z,2666
2018-08-14T13:40:24.795Z,2646
2018-08-14T13:41:40.692Z,2671
2018-08-14T13:42:56.597Z,2749
2018-08-14T13:44:12.532Z,2513
2018-08-14T13:45:28.505Z,2629
2018-08-14T13:46:44.414Z,2769
2018-08-14T13:48:00.479Z,2723
2018-08-14T13:49:16.501Z,2862
2018-08-14T13:50:32.610Z,2921
2018-08-14T13:51:48.524Z,3017
2018-08-14T13:53:04.420Z,3006
2018-08-14T13:54:20.376Z,2109
2018-08-14T13:55:36.386Z,1988
2018-08-14T13:56:52.367Z,1931
2018-08-14T13:58:08.366Z,2076
2018-08-14T13:59:24.436Z,2151
2018-08-14T14:00:40.611Z,2622
2018-08-14T14:01:56.586Z,2419
2018-08-14T14:03:12.521Z,2454
2018-08-14T14:04:28.513Z,2353
2018-08-14T14:05:44.617Z,2373
2018-08-14T14:07:00.768Z,2543
2018-08-14T14:08:16.807Z,2306
2018-08-14T14:09:32.769Z,3505
2018-08-14T14:10:48.773Z,3561
2018-08-14T14:12:04.712Z,3582
2018-08-14T14:13:20.778Z,3535
2018-08-14T14:14:36.918Z,2544
2018-08-14T14:15:52.973Z,3238
2018-08-14T14:17:08.952Z,2464
2018-08-14T14:18:24.990Z,2449
2018-08-14T14:19:40.947Z,2373
2018-08-14T14:20:57.194Z,2344
2018-08-14T14:22:13.225Z,2489
2018-08-14T14:23:29.164Z,2529
2018-08-14T14:24:45.079Z,2675
2018-08-14T14:26:01.072Z,2253
2018-08-14T14:27:17.094Z,2977
2018-08-14T14:28:33.050Z,2305
2018-08-14T14:29:49.033Z,2043
2018-08-14T14:31:05.111Z,1737
2018-08-14T14:32:20.996Z,1943
2018-08-14T14:33:37.039Z,1938
2018-08-14T14:34:52.970Z,2110
2018-08-14T14:36:08.947Z,2783
2018-08-14T14:37:25.113Z,2673
2018-08-14T14:38:41.051Z,2636
2018-08-14T14:39:57.019Z,2620
2018-08-14T14:41:13.144Z,2366
2018-08-14T14:42:29.173Z,2587
2018-08-14T14:43:45.155Z,2684
2018-08-14T14:45:01.115Z,2809
2018-08-14T14:46:17.138Z,2270
2018-08-14T14:47:33.108Z,2579
2018-08-14T14:48:49.068Z,1815
2018-08-14T14:50:05.125Z,1821
2018-08-14T14:51:21.194Z,1676
2018-08-14T14:52:37.232Z,1572
2018-08-14T14:53:53.272Z,2592
2018-08-14T14:55:09.214Z,1703
2018-08-14T14:56:25.199Z,1786
2018-08-14T14:57:41.167Z,1571
2018-08-14T14:58:57.193Z,1768
2018-08-14T15:00:13.197Z,1849
2018-08-14T15:01:29.206Z,1798
2018-08-14T15:02:45.303Z,1753
2018-08-14T15:04:01.218Z,2845
2018-08-14T15:05:17.240Z,1890
2018-08-14T15:06:33.357Z,2692
2018-08-14T15:07:49.290Z,2548
2018-08-14T15:09:05.255Z,2570
2018-08-14T15:10:21.275Z,2495
2018-08-14T15:11:37.278Z,1597
2018-08-14T15:12:53.265Z,2457
2018-08-14T15:14:09.280Z,1800
2018-08-14T15:17:06.900Z,2479
2018-08-14T15:18:22.881Z,2453
2018-08-14T15:19:38.931Z,2521
2018-08-14T15:20:54.939Z,2609
2018-08-14T15:22:10.913Z,2602
2018-08-14T15:23:26.953Z,2503
2018-08-14T15:24:43.055Z,2370
2018-08-14T15:26:00.052Z,2314
2018-08-14T15:27:16.039Z,2276
2018-08-14T15:28:32.003Z,2253
2018-08-14T15:29:47.991Z,1925
2018-08-14T15:31:04.041Z,2092
2018-08-14T15:32:20.186Z,2044
2018-08-14T15:33:36.231Z,1314
2018-08-14T15:34:52.201Z,1359
2018-08-14T15:36:08.234Z,1390
2018-08-14T15:37:24.292Z,1571
2018-08-14T15:38:40.447Z,1879
2018-08-14T15:39:56.475Z,2139
2018-08-14T15:41:12.646Z,2154
2018-08-14T15:42:28.646Z,2113
2018-08-14T15:43:44.721Z,2174
2018-08-14T15:45:00.787Z,2163
2018-08-14T15:46:16.719Z,2173
2018-08-14T15:47:32.901Z,2183
2018-08-14T15:48:48.921Z,2126
2018-08-14T15:50:04.983Z,2150
2018-08-14T15:51:22.086Z,2083
2018-08-14T15:52:38.184Z,2067
2018-08-14T15:53:54.261Z,2031
2018-08-14T15:55:10.470Z,2030
2018-08-14T15:56:28.011Z,2041
2018-08-14T15:57:43.971Z,2006
2018-08-14T15:58:59.953Z,1989
2018-08-14T16:00:15.931Z,2003
2018-08-14T16:01:31.935Z,2016
2018-08-14T16:02:47.940Z,2031
2018-08-14T16:04:03.906Z,2015
2018-08-14T16:05:19.869Z,1978
2018-08-14T16:06:36.064Z,1435
2018-08-14T16:07:52.161Z,1863
2018-08-14T16:09:08.426Z,1888
2018-08-14T16:10:24.638Z,1868
2018-08-14T16:11:40.767Z,1569
2018-08-14T16:12:56.865Z,1445
2018-08-14T16:14:13.117Z,1706
2018-08-14T16:15:29.076Z,1664
2018-08-14T16:16:45.070Z,1782
2018-08-14T16:18:01.079Z,1809
2018-08-14T16:19:17.061Z,1783
2018-08-14T16:20:33.026Z,1768
2018-08-14T16:21:49.076Z,1771
2018-08-14T16:23:05.042Z,1769
2018-08-14T16:24:21.404Z,1752
2018-08-14T16:25:37.506Z,1754
2018-08-14T16:26:53.496Z,1268
2018-08-14T16:28:09.516Z,1479
2018-08-14T16:29:25.632Z,1671
2018-08-14T16:30:41.656Z,1700
2018-08-14T16:31:57.735Z,1400
2018-08-14T16:33:13.662Z,1650
2018-08-14T16:34:29.730Z,1619
2018-08-14T16:35:45.766Z,1573
2018-08-14T16:37:01.777Z,1589
2018-08-14T16:38:17.725Z,1630
2018-08-14T16:39:33.688Z,1651
2018-08-14T16:40:49.697Z,1650
2018-08-14T16:42:05.611Z,1578
2018-08-14T16:43:21.618Z,1587
2018-08-14T16:44:37.715Z,1566
2018-08-14T16:45:53.684Z,1488
2018-08-14T16:47:09.656Z,1454
2018-08-14T16:48:25.641Z,1453
2018-08-14T16:51:22.499Z,1428
2018-08-14T16:52:38.506Z,1293
2018-08-14T16:53:54.481Z,1336
2018-08-14T16:55:10.485Z,1272
2018-08-14T16:56:26.508Z,1169
2018-08-14T16:57:42.438Z,804
2018-08-14T16:58:58.413Z,735
2018-08-14T17:00:14.376Z,689
2018-08-14T17:01:30.613Z,681
2018-08-14T17:02:46.595Z,588
2018-08-14T17:04:02.655Z,541
2018-08-14T17:05:18.651Z,465
2018-08-14T17:06:34.646Z,391
2018-08-14T17:07:50.767Z,362
2018-08-14T17:09:06.702Z,328
2018-08-14T17:10:22.668Z,315
2018-08-14T17:11:38.660Z,305
2018-08-14T17:12:54.759Z,280
2018-08-14T17:14:10.928Z,262
2018-08-14T17:15:26.934Z,252
2018-08-14T17:16:42.939Z,255
2018-08-14T17:17:58.980Z,267
2018-08-14T17:19:15.100Z,261
2018-08-14T17:20:31.143Z,245
2018-08-14T17:21:47.305Z,217
2018-08-14T17:23:03.417Z,177
2018-08-14T17:24:19.592Z,152
2018-08-14T17:25:35.793Z,136
2018-08-14T17:26:51.729Z,128
2018-08-14T17:28:07.795Z,122
2018-08-14T17:29:23.943Z,115
2018-08-14T17:30:39.998Z,104
2018-08-14T17:31:56.006Z,94
2018-08-14T17:33:11.972Z,85
2018-08-14T17:34:27.941Z,79
2018-08-14T17:35:44.030Z,74
2018-08-14T17:37:00.110Z,70